Pride Of Kent — MQCJ2 — position and weather

sailwx.info

Track history (hours):
 
Tides and Currents Weather Stations Pressure Air Temp Water Temp Dewpoint Dewpoint Depression Visibility Wind Speed Wind Dir Waves Ship Positions

Pride Of Kent

Operator: P & O Ferries

Last reported at 2016-Sep-27 00:34 UTC. Time now 2016-Sep-27 07:02 UTC.
Position N 51°02' E 001°31'.

Length 180 m; draft 6 m.

Type: Passenger vessel. MMSI: 232009000.

Date/timePositionNaut miles runAvg speedWind from/ knotsBaromVisibWave heightAir tempDewpointWater temp
2016-Sep-27 00:34N 51°02' E 001°31'12 3.1
2016-Sep-26 20:33N 50°58' E 001°49'1616.3
2016-Sep-26 19:34N 51°05' E 001°26'11 2.8
2016-Sep-26 15:34N 50°59' E 001°40'15 7.5
2016-Sep-26 13:33N 51°07' E 001°21'2110.6
2016-Sep-26 11:33N 50°58' E 001°51'11 3.6
2016-Sep-26 08:33N 51°02' E 001°35'11 1.8
2016-Sep-26 02:33N 50°58' E 001°51'0 0.0
2016-Sep-26 01:33N 50°58' E 001°51'1414.4
2016-Sep-26 00:33N 51°03' E 001°30'14 4.7
2016-Sep-25 21:33N 50°58' E 001°51'8 2.1
2016-Sep-25 17:34N 51°01' E 001°38'8 8.4
2016-Sep-25 16:34N 50°58' E 001°51'9 9.2
2016-Sep-25 15:33N 51°00' E 001°37'13 8.6
2016-Sep-25 14:04N 51°07' E 001°20'2214.1
2016-Sep-25 12:32N 50°58' E 001°51'0 0.2
2016-Sep-25 11:34N 50°58' E 001°51'1515.2
2016-Sep-25 10:33N 51°04' E 001°28'6 5.7
2016-Sep-25 09:28N 51°07' E 001°20'2211.3
2016-Sep-25 07:33N 50°58' E 001°51'22 7.2
2016-Sep-25 04:33N 51°07' E 001°20'0 0.0
2016-Sep-25 00:33N 51°07' E 001°20'11 5.5
2016-Sep-24 22:34N 51°01' E 001°34'1111.1
2016-Sep-24 21:34N 50°58' E 001°51'2210.7
2016-Sep-24 19:32N 51°07' E 001°20'4 4.4
2016-Sep-24 18:34N 51°07' E 001°27'1616.1
2016-Sep-24 17:34N 50°58' E 001°48'2 1.6
2016-Sep-24 16:33N 50°58' E 001°51'2210.7
2016-Sep-24 14:33N 51°07' E 001°20'2210.8
2016-Sep-24 12:33N 50°58' E 001°51'15 7.7
2016-Sep-24 10:33N 51°04' E 001°28'6 6.0
2016-Sep-24 09:31N 51°07' E 001°20'7 1.2
2016-Sep-24 03:33N 51°04' E 001°30'1414.5
2016-Sep-24 02:33N 50°58' E 001°51'0 0.1
2016-Sep-24 01:33N 50°58' E 001°51'1313.3
2016-Sep-24 00:34N 51°02' E 001°31'8 1.1
2016-Sep-23 17:34N 50°59' E 001°42'6 5.6
2016-Sep-23 16:33N 50°58' E 001°51'1212.2
2016-Sep-23 15:33N 51°01' E 001°32'2 1.1
2016-Sep-23 13:33N 51°03' E 001°32'9 2.1
2016-Sep-23 09:30N 51°07' E 001°20'17 5.8
2016-Sep-23 06:33N 50°58' E 001°43'17 7.1
2016-Sep-23 04:09N 51°07' E 001°20'712.3
2016-Sep-23 03:33N 51°06' E 001°31'1414.5
2016-Sep-23 02:33N 50°58' E 001°51'0 0.2
2016-Sep-23 01:33N 50°58' E 001°51'1313.1
2016-Sep-23 00:34N 51°00' E 001°31'10 7.0
2016-Sep-22 23:11N 51°07' E 001°20'18 7.0
2016-Sep-22 20:33N 50°58' E 001°45'4 0.5
2016-Sep-22 12:33N 50°58' E 001°51'22 2.7
2016-Sep-22 04:33N 51°07' E 001°20'10 9.8
2016-Sep-22 03:33N 51°06' E 001°35'5 1.8
2016-Sep-22 00:33N 51°04' E 001°28'6 6.1
2016-Sep-21 23:33N 51°07' E 001°20'1413.9
2016-Sep-21 22:33N 51°01' E 001°39'14 4.6
2016-Sep-21 19:32N 51°07' E 001°20'22 7.2
2016-Sep-21 16:33N 50°58' E 001°51'22 3.1
2016-Sep-21 09:33N 51°07' E 001°20'1413.9
2016-Sep-21 08:33N 51°01' E 001°40'14 4.6
2016-Sep-21 05:33N 51°07' E 001°20'10 5.2
2016-Sep-21 03:33N 51°03' E 001°35'1111.2
2016-Sep-21 02:33N 50°58' E 001°51'6 0.7
2016-Sep-20 17:34N 50°59' E 001°41'16 4.6
2016-Sep-20 14:09N 51°07' E 001°20'711.8
2016-Sep-20 13:33N 51°05' E 001°31'4 1.5
2016-Sep-20 10:33N 51°05' E 001°24'11 5.3
2016-Sep-20 08:33N 51°01' E 001°39'8 7.9
2016-Sep-20 07:33N 50°58' E 001°51'6 6.0
2016-Sep-20 06:33N 50°58' E 001°42'6 1.6
2016-Sep-20 02:33N 50°58' E 001°51'22 7.2
2016-Sep-19 23:32N 51°07' E 001°20'0 0.1
2016-Sep-19 19:33N 51°07' E 001°21'0 0.3
2016-Sep-19 18:33N 51°07' E 001°20'2110.7
2016-Sep-19 16:34N 50°58' E 001°51'2210.2
2016-Sep-19 14:27N 51°07' E 001°20'8 9.5
2016-Sep-19 13:34N 51°06' E 001°33'1313.3
2016-Sep-19 12:33N 50°58' E 001°51'0 0.0
2016-Sep-19 11:33N 50°58' E 001°51'2210.0
2016-Sep-19 09:25N 51°07' E 001°20'2211.6
2016-Sep-19 07:33N 50°58' E 001°51'5 4.8
2016-Sep-19 06:33N 50°58' E 001°43'6 1.8
2016-Sep-19 03:33N 51°01' E 001°36'10 9.5
2016-Sep-19 02:32N 50°58' E 001°51'12 6.0
2016-Sep-19 00:34N 51°01' E 001°33'7 1.3
2016-Sep-18 19:33N 51°05' E 001°25'12 3.1
2016-Sep-18 15:33N 50°58' E 001°41'8 1.6
2016-Sep-18 10:34N 51°02' E 001°30'8 7.1
2016-Sep-18 09:23N 51°07' E 001°20'22 3.2
2016-Sep-18 02:33N 50°58' E 001°51'0 0.0
2016-Sep-18 01:31N 50°58' E 001°51'1212.7
2016-Sep-18 00:33N 51°03' E 001°34'1 0.6
2016-Sep-17 22:33N 51°05' E 001°34'1312.8
2016-Sep-17 21:33N 50°58' E 001°51'3 3.0
2016-Sep-17 20:34N 50°58' E 001°46'1914.4
2016-Sep-17 19:16N 51°07' E 001°21'7 1.2
2016-Sep-17 13:34N 51°04' E 001°31'1414.2
2016-Sep-17 12:33N 50°58' E 001°51'18 8.9
2016-Sep-17 10:33N 51°04' E 001°25'4 3.7
2016-Sep-17 09:25N 51°07' E 001°20'1011.7
2016-Sep-17 08:34N 51°03' E 001°34'1111.4
2016-Sep-17 07:33N 50°58' E 001°51'2210.8
2016-Sep-17 05:33N 51°07' E 001°20'0 0.0
2016-Sep-17 04:17N 51°07' E 001°20'2 0.7
2016-Sep-17 00:34N 51°06' E 001°23'  
Track history (hours):
 
Tides and Currents Weather Stations Pressure Air Temp Water Temp Dewpoint Dewpoint Depression Visibility Wind Speed Wind Dir Waves Ship Positions

Pride Of Kent

Operator: P & O Ferries

Last reported at 2016-Sep-27 00:34 UTC. Time now 2016-Sep-27 07:02 UTC.
Position N 51°02' E 001°31'.

Length 180 m; draft 6 m.

Type: Passenger vessel. MMSI: 232009000.

Date/timePositionNaut miles runAvg speedWind from/ knotsBaromVisibWave heightAir tempDewpointWater temp
2016-Sep-27 00:34N 51°02' E 001°31'12 3.1
2016-Sep-26 20:33N 50°58' E 001°49'1616.3
2016-Sep-26 19:34N 51°05' E 001°26'11 2.8
2016-Sep-26 15:34N 50°59' E 001°40'15 7.5
2016-Sep-26 13:33N 51°07' E 001°21'2110.6
2016-Sep-26 11:33N 50°58' E 001°51'11 3.6
2016-Sep-26 08:33N 51°02' E 001°35'11 1.8
2016-Sep-26 02:33N 50°58' E 001°51'0 0.0
2016-Sep-26 01:33N 50°58' E 001°51'1414.4
2016-Sep-26 00:33N 51°03' E 001°30'14 4.7
2016-Sep-25 21:33N 50°58' E 001°51'8 2.1
2016-Sep-25 17:34N 51°01' E 001°38'8 8.4
2016-Sep-25 16:34N 50°58' E 001°51'9 9.2
2016-Sep-25 15:33N 51°00' E 001°37'13 8.6
2016-Sep-25 14:04N 51°07' E 001°20'2214.1
2016-Sep-25 12:32N 50°58' E 001°51'0 0.2
2016-Sep-25 11:34N 50°58' E 001°51'1515.2
2016-Sep-25 10:33N 51°04' E 001°28'6 5.7
2016-Sep-25 09:28N 51°07' E 001°20'2211.3
2016-Sep-25 07:33N 50°58' E 001°51'22 7.2
2016-Sep-25 04:33N 51°07' E 001°20'0 0.0
2016-Sep-25 00:33N 51°07' E 001°20'11 5.5
2016-Sep-24 22:34N 51°01' E 001°34'1111.1
2016-Sep-24 21:34N 50°58' E 001°51'2210.7
2016-Sep-24 19:32N 51°07' E 001°20'4 4.4
2016-Sep-24 18:34N 51°07' E 001°27'1616.1
2016-Sep-24 17:34N 50°58' E 001°48'2 1.6
2016-Sep-24 16:33N 50°58' E 001°51'2210.7
2016-Sep-24 14:33N 51°07' E 001°20'2210.8
2016-Sep-24 12:33N 50°58' E 001°51'15 7.7
2016-Sep-24 10:33N 51°04' E 001°28'6 6.0
2016-Sep-24 09:31N 51°07' E 001°20'7 1.2
2016-Sep-24 03:33N 51°04' E 001°30'1414.5
2016-Sep-24 02:33N 50°58' E 001°51'0 0.1
2016-Sep-24 01:33N 50°58' E 001°51'1313.3
2016-Sep-24 00:34N 51°02' E 001°31'8 1.1
2016-Sep-23 17:34N 50°59' E 001°42'6 5.6
2016-Sep-23 16:33N 50°58' E 001°51'1212.2
2016-Sep-23 15:33N 51°01' E 001°32'2 1.1
2016-Sep-23 13:33N 51°03' E 001°32'9 2.1
2016-Sep-23 09:30N 51°07' E 001°20'17 5.8
2016-Sep-23 06:33N 50°58' E 001°43'17 7.1
2016-Sep-23 04:09N 51°07' E 001°20'712.3
2016-Sep-23 03:33N 51°06' E 001°31'1414.5
2016-Sep-23 02:33N 50°58' E 001°51'0 0.2
2016-Sep-23 01:33N 50°58' E 001°51'1313.1
2016-Sep-23 00:34N 51°00' E 001°31'10 7.0
2016-Sep-22 23:11N 51°07' E 001°20'18 7.0
2016-Sep-22 20:33N 50°58' E 001°45'4 0.5
2016-Sep-22 12:33N 50°58' E 001°51'22 2.7
2016-Sep-22 04:33N 51°07' E 001°20'10 9.8
2016-Sep-22 03:33N 51°06' E 001°35'5 1.8
2016-Sep-22 00:33N 51°04' E 001°28'6 6.1
2016-Sep-21 23:33N 51°07' E 001°20'1413.9
2016-Sep-21 22:33N 51°01' E 001°39'14 4.6
2016-Sep-21 19:32N 51°07' E 001°20'22 7.2
2016-Sep-21 16:33N 50°58' E 001°51'22 3.1
2016-Sep-21 09:33N 51°07' E 001°20'1413.9
2016-Sep-21 08:33N 51°01' E 001°40'14 4.6
2016-Sep-21 05:33N 51°07' E 001°20'10 5.2
2016-Sep-21 03:33N 51°03' E 001°35'1111.2
2016-Sep-21 02:33N 50°58' E 001°51'6 0.7
2016-Sep-20 17:34N 50°59' E 001°41'16 4.6
2016-Sep-20 14:09N 51°07' E 001°20'711.8
2016-Sep-20 13:33N 51°05' E 001°31'4 1.5
2016-Sep-20 10:33N 51°05' E 001°24'11 5.3
2016-Sep-20 08:33N 51°01' E 001°39'8 7.9
2016-Sep-20 07:33N 50°58' E 001°51'6 6.0
2016-Sep-20 06:33N 50°58' E 001°42'6 1.6
2016-Sep-20 02:33N 50°58' E 001°51'22 7.2
2016-Sep-19 23:32N 51°07' E 001°20'0 0.1
2016-Sep-19 19:33N 51°07' E 001°21'0 0.3
2016-Sep-19 18:33N 51°07' E 001°20'2110.7
2016-Sep-19 16:34N 50°58' E 001°51'2210.2
2016-Sep-19 14:27N 51°07' E 001°20'8 9.5
2016-Sep-19 13:34N 51°06' E 001°33'1313.3
2016-Sep-19 12:33N 50°58' E 001°51'0 0.0
2016-Sep-19 11:33N 50°58' E 001°51'2210.0
2016-Sep-19 09:25N 51°07' E 001°20'2211.6
2016-Sep-19 07:33N 50°58' E 001°51'5 4.8
2016-Sep-19 06:33N 50°58' E 001°43'6 1.8
2016-Sep-19 03:33N 51°01' E 001°36'10 9.5
2016-Sep-19 02:32N 50°58' E 001°51'12 6.0
2016-Sep-19 00:34N 51°01' E 001°33'7 1.3
2016-Sep-18 19:33N 51°05' E 001°25'12 3.1
2016-Sep-18 15:33N 50°58' E 001°41'8 1.6
2016-Sep-18 10:34N 51°02' E 001°30'8 7.1
2016-Sep-18 09:23N 51°07' E 001°20'22 3.2
2016-Sep-18 02:33N 50°58' E 001°51'0 0.0
2016-Sep-18 01:31N 50°58' E 001°51'1212.7
2016-Sep-18 00:33N 51°03' E 001°34'1 0.6
2016-Sep-17 22:33N 51°05' E 001°34'1312.8
2016-Sep-17 21:33N 50°58' E 001°51'3 3.0
2016-Sep-17 20:34N 50°58' E 001°46'1914.4
2016-Sep-17 19:16N 51°07' E 001°21'7 1.2
2016-Sep-17 13:34N 51°04' E 001°31'1414.2
2016-Sep-17 12:33N 50°58' E 001°51'18 8.9
2016-Sep-17 10:33N 51°04' E 001°25'4 3.7
2016-Sep-17 09:25N 51°07' E 001°20'1011.7
2016-Sep-17 08:34N 51°03' E 001°34'1111.4
2016-Sep-17 07:33N 50°58' E 001°51'2210.8
2016-Sep-17 05:33N 51°07' E 001°20'0 0.0
2016-Sep-17 04:17N 51°07' E 001°20'2 0.7
2016-Sep-17 00:34N 51°06' E 001°23'  

Dump ship's entire track history